createdAt,value
2023-02-28T00:00:37.003Z,0.70
2023-02-28T00:01:27.506Z,0.69
2023-02-28T00:02:17.413Z,0.68
2023-02-28T00:03:07.391Z,0.66
2023-02-28T00:03:57.414Z,0.68
2023-02-28T00:04:47.442Z,0.68
2023-02-28T00:05:37.529Z,0.67
2023-02-28T00:06:27.565Z,0.70
2023-02-28T00:07:17.659Z,0.67
2023-02-28T00:08:07.669Z,0.69
2023-02-28T00:08:57.788Z,0.68
2023-02-28T00:09:47.796Z,0.68
2023-02-28T00:10:37.872Z,0.67
2023-02-28T00:11:28.471Z,0.67
2023-02-28T00:12:18.169Z,0.67
2023-02-28T00:13:08.216Z,0.69
2023-02-28T00:13:58.308Z,0.67
2023-02-28T00:14:48.343Z,0.68
2023-02-28T00:15:38.398Z,0.68
2023-02-28T00:16:28.460Z,0.69
2023-02-28T00:17:18.489Z,0.69
2023-02-28T00:18:08.557Z,0.68
2023-02-28T00:18:58.639Z,0.68
2023-02-28T00:19:48.669Z,0.69
2023-02-28T00:20:38.754Z,0.68
2023-02-28T00:21:29.112Z,0.69
2023-02-28T00:22:18.826Z,0.68
2023-02-28T00:23:08.917Z,0.66
2023-02-28T00:23:58.999Z,0.66
2023-02-28T00:24:49.028Z,0.69
2023-02-28T00:25:39.113Z,0.67
2023-02-28T00:26:29.158Z,0.66
2023-02-28T00:27:19.483Z,0.66
2023-02-28T00:28:09.516Z,0.68
2023-02-28T00:28:59.618Z,0.67
2023-02-28T00:29:49.661Z,0.66
2023-02-28T00:30:39.775Z,0.65
2023-02-28T00:31:30.154Z,0.67
2023-02-28T00:32:19.861Z,0.67
2023-02-28T00:33:09.851Z,0.65
2023-02-28T00:34:00.017Z,0.67
2023-02-28T00:34:50.004Z,0.66
2023-02-28T00:35:40.107Z,0.65
2023-02-28T00:36:30.085Z,0.65
2023-02-28T00:37:20.136Z,0.67
2023-02-28T00:38:10.165Z,0.65
2023-02-28T00:39:00.299Z,0.65
2023-02-28T00:39:50.293Z,0.67
2023-02-28T00:40:40.371Z,0.65
2023-02-28T00:41:30.667Z,0.65
2023-02-28T00:42:20.474Z,0.65
2023-02-28T00:43:10.503Z,0.66
2023-02-28T00:44:00.595Z,0.64
2023-02-28T00:44:50.634Z,0.65
2023-02-28T00:45:40.709Z,0.64
2023-02-28T00:46:30.798Z,0.64
2023-02-28T00:47:20.812Z,0.64
2023-02-28T00:48:10.831Z,0.65
2023-02-28T00:49:00.931Z,0.64
2023-02-28T00:49:51.226Z,0.63
2023-02-28T00:50:41.302Z,0.64
2023-02-28T00:51:31.368Z,0.66
2023-02-28T00:52:21.391Z,0.65
2023-02-28T00:53:11.430Z,0.64
2023-02-28T00:54:01.504Z,0.67
2023-02-28T00:54:51.549Z,0.64
2023-02-28T00:55:41.602Z,0.65
2023-02-28T00:56:31.635Z,0.65
2023-02-28T00:57:21.713Z,0.64
2023-02-28T00:58:11.745Z,0.66
2023-02-28T00:59:02.107Z,0.65
2023-02-28T00:59:52.148Z,0.63
2023-02-28T01:00:42.220Z,0.63
2023-02-28T01:01:32.520Z,0.65
2023-02-28T01:02:22.324Z,0.64
2023-02-28T01:03:12.354Z,0.64
2023-02-28T01:04:02.477Z,0.64
2023-02-28T01:04:52.549Z,0.65
2023-02-28T01:05:42.558Z,0.64
2023-02-28T01:06:32.586Z,0.63
2023-02-28T01:07:22.632Z,0.67
2023-02-28T01:08:12.694Z,0.65
2023-02-28T01:09:02.739Z,0.65
2023-02-28T01:09:52.814Z,0.65
2023-02-28T01:10:42.898Z,0.65
2023-02-28T01:11:32.887Z,0.65
2023-02-28T01:12:22.934Z,0.65
2023-02-28T01:13:12.966Z,0.63
2023-02-28T01:14:03.051Z,0.62
2023-02-28T01:14:53.081Z,0.65
2023-02-28T01:15:43.183Z,0.64
2023-02-28T01:16:33.149Z,0.62
2023-02-28T01:17:23.228Z,0.64
2023-02-28T01:18:13.257Z,0.64
2023-02-28T01:19:03.617Z,0.64
2023-02-28T01:19:53.640Z,0.65
2023-02-28T01:20:43.721Z,0.64
2023-02-28T01:21:33.752Z,0.64
2023-02-28T01:22:23.835Z,0.63
2023-02-28T01:23:13.863Z,0.65
2023-02-28T01:24:03.963Z,0.66
2023-02-28T01:24:53.987Z,0.64
2023-02-28T01:25:44.184Z,0.64
2023-02-28T01:26:34.125Z,0.65
2023-02-28T01:27:24.185Z,0.64
2023-02-28T01:28:14.432Z,0.65
2023-02-28T01:29:04.517Z,0.64
2023-02-28T01:29:54.550Z,0.65
2023-02-28T01:30:44.704Z,0.63
2023-02-28T01:31:34.729Z,0.63
2023-02-28T01:32:24.830Z,0.63
2023-02-28T01:33:14.790Z,0.65
2023-02-28T01:34:04.841Z,0.64
2023-02-28T01:34:54.955Z,0.64
2023-02-28T01:35:45.074Z,0.62
2023-02-28T01:36:35.106Z,0.63
2023-02-28T01:37:25.420Z,0.65
2023-02-28T01:38:22.238Z,0.63
2023-02-28T01:39:06.543Z,0.63
2023-02-28T01:39:55.583Z,0.63
2023-02-28T01:40:45.664Z,0.62
2023-02-28T01:41:35.692Z,0.63
2023-02-28T01:42:25.796Z,0.65
2023-02-28T01:43:15.830Z,0.63
2023-02-28T01:44:05.921Z,0.65
2023-02-28T01:44:56.053Z,0.63
2023-02-28T01:45:46.102Z,0.63
2023-02-28T01:46:36.249Z,0.64
2023-02-28T01:47:26.208Z,0.64
2023-02-28T01:48:16.251Z,0.62
2023-02-28T01:49:06.305Z,0.64
2023-02-28T01:49:56.337Z,0.63
2023-02-28T01:50:46.385Z,0.64
2023-02-28T01:51:36.455Z,0.61
2023-02-28T01:52:26.535Z,0.63
2023-02-28T01:53:16.572Z,0.62
2023-02-28T01:54:06.656Z,0.60
2023-02-28T01:54:56.690Z,0.60
2023-02-28T01:55:46.715Z,0.60
2023-02-28T01:56:36.755Z,0.61
2023-02-28T01:57:26.798Z,0.59
2023-02-28T01:58:16.906Z,0.61
2023-02-28T01:59:06.952Z,0.60
2023-02-28T01:59:56.990Z,0.59
2023-02-28T02:00:47.071Z,0.61
2023-02-28T02:01:37.161Z,0.61
2023-02-28T02:02:27.196Z,0.61
2023-02-28T02:03:17.486Z,0.61
2023-02-28T02:04:07.265Z,0.59
2023-02-28T02:04:57.327Z,0.60
2023-02-28T02:05:47.376Z,0.59
2023-02-28T02:06:37.402Z,0.59
2023-02-28T02:07:27.453Z,0.59
2023-02-28T02:08:17.487Z,0.60
2023-02-28T02:09:07.535Z,0.60
2023-02-28T02:09:57.570Z,0.59
2023-02-28T02:10:47.638Z,0.58
2023-02-28T02:11:37.708Z,0.59
2023-02-28T02:12:27.750Z,0.58
2023-02-28T02:13:17.777Z,0.60
2023-02-28T02:14:07.879Z,0.58
2023-02-28T02:14:57.906Z,0.59
2023-02-28T02:15:47.980Z,0.58
2023-02-28T02:16:37.994Z,0.57
2023-02-28T02:17:28.066Z,0.58
2023-02-28T02:18:18.097Z,0.58
2023-02-28T02:19:08.181Z,0.57
2023-02-28T02:19:58.220Z,0.59
2023-02-28T02:20:48.263Z,0.59
2023-02-28T02:21:38.314Z,0.58
2023-02-28T02:22:28.344Z,0.58
2023-02-28T02:23:18.374Z,0.58
2023-02-28T02:24:08.454Z,0.58
2023-02-28T02:24:58.494Z,0.58
2023-02-28T02:25:48.532Z,0.58
2023-02-28T02:26:38.562Z,0.58
2023-02-28T02:27:28.633Z,0.56
2023-02-28T02:28:18.646Z,0.58
2023-02-28T02:29:08.730Z,0.58
2023-02-28T02:29:58.799Z,0.56
2023-02-28T02:30:48.813Z,0.56
2023-02-28T02:31:38.913Z,0.57
2023-02-28T02:32:28.942Z,0.56
2023-02-28T02:33:18.954Z,0.58
2023-02-28T02:34:09.000Z,0.58
2023-02-28T02:34:59.050Z,0.57
2023-02-28T02:35:49.132Z,0.58
2023-02-28T02:36:39.147Z,0.58
2023-02-28T02:37:29.194Z,0.58
2023-02-28T02:38:19.267Z,0.59
2023-02-28T02:39:09.346Z,0.60
2023-02-28T02:39:59.388Z,0.58
2023-02-28T02:40:49.428Z,0.61
2023-02-28T02:41:39.457Z,0.61
2023-02-28T02:42:29.559Z,0.60
2023-02-28T02:43:19.575Z,0.58
2023-02-28T02:44:09.621Z,0.60
2023-02-28T02:44:59.678Z,0.61
2023-02-28T02:45:49.740Z,0.60
2023-02-28T02:46:39.806Z,0.60
2023-02-28T02:47:29.808Z,0.61
2023-02-28T02:48:19.851Z,0.60
2023-02-28T02:49:09.936Z,0.61
2023-02-28T02:49:59.977Z,0.61
2023-02-28T02:50:50.031Z,0.60
2023-02-28T02:51:40.047Z,0.58
2023-02-28T02:52:30.129Z,0.60
2023-02-28T02:53:20.159Z,0.59
2023-02-28T02:54:10.499Z,0.58
2023-02-28T02:55:00.557Z,0.58
2023-02-28T02:55:50.594Z,0.58
2023-02-28T02:56:40.630Z,0.60
2023-02-28T02:57:30.711Z,0.59
2023-02-28T02:58:20.754Z,0.58
2023-02-28T02:59:10.823Z,0.58
2023-02-28T03:00:00.879Z,0.59
2023-02-28T03:00:50.951Z,0.59
2023-02-28T03:01:40.967Z,0.58
2023-02-28T03:02:30.989Z,0.59
2023-02-28T03:03:21.023Z,0.59
2023-02-28T03:04:11.101Z,0.59
2023-02-28T03:05:01.149Z,0.58
2023-02-28T03:05:51.225Z,0.59
2023-02-28T03:06:41.216Z,0.59
2023-02-28T03:07:31.291Z,0.61
2023-02-28T03:08:21.366Z,0.60
2023-02-28T03:09:11.436Z,0.58
2023-02-28T03:10:01.791Z,0.59
2023-02-28T03:10:51.822Z,0.59
2023-02-28T03:11:41.854Z,0.57
2023-02-28T03:12:31.902Z,0.57
2023-02-28T03:13:21.941Z,0.60
2023-02-28T03:14:11.993Z,0.57
2023-02-28T03:15:02.036Z,0.58
2023-02-28T03:15:52.068Z,0.59
2023-02-28T03:16:42.141Z,0.57
2023-02-28T03:17:32.257Z,0.58
2023-02-28T03:18:22.254Z,0.60
2023-02-28T03:19:12.587Z,0.59
2023-02-28T03:20:02.677Z,0.58
2023-02-28T03:20:52.702Z,0.59
2023-02-28T03:21:43.030Z,0.59
2023-02-28T03:22:33.104Z,0.58
2023-02-28T03:23:23.139Z,0.58
2023-02-28T03:24:13.175Z,0.59
2023-02-28T03:25:03.241Z,0.59
2023-02-28T03:25:53.270Z,0.60
2023-02-28T03:26:43.316Z,0.59
2023-02-28T03:27:33.382Z,0.59
2023-02-28T03:28:23.440Z,0.58
2023-02-28T03:29:13.508Z,0.60
2023-02-28T03:30:03.562Z,0.59
2023-02-28T03:30:53.627Z,0.57
2023-02-28T03:31:43.697Z,0.58
2023-02-28T03:32:33.748Z,0.58
2023-02-28T03:33:23.755Z,0.59
2023-02-28T03:34:13.811Z,0.58
2023-02-28T03:35:03.865Z,0.59
2023-02-28T03:35:53.968Z,0.58
2023-02-28T03:36:43.928Z,0.59
2023-02-28T03:37:34.003Z,0.59
2023-02-28T03:38:24.033Z,0.61
2023-02-28T03:39:14.112Z,0.60
2023-02-28T03:40:04.152Z,0.60
2023-02-28T03:40:54.192Z,0.61
2023-02-28T03:41:44.222Z,0.59
2023-02-28T03:42:34.271Z,0.61
2023-02-28T03:43:24.306Z,0.61
2023-02-28T03:44:14.342Z,0.61
2023-02-28T03:45:04.394Z,0.60
2023-02-28T03:45:54.535Z,0.62
2023-02-28T03:46:44.458Z,0.62
2023-02-28T03:47:34.539Z,0.60
2023-02-28T03:48:24.609Z,0.60
2023-02-28T03:49:14.682Z,0.61
2023-02-28T03:50:04.706Z,0.60
2023-02-28T03:50:54.745Z,0.61
2023-02-28T03:51:44.767Z,0.62
2023-02-28T03:52:34.850Z,0.58
2023-02-28T03:53:24.884Z,0.60
2023-02-28T03:54:14.961Z,0.61
2023-02-28T03:55:05.011Z,0.62
2023-02-28T03:55:55.062Z,0.62
2023-02-28T03:56:45.114Z,0.63
2023-02-28T03:57:35.447Z,0.61
2023-02-28T03:58:25.517Z,0.62
2023-02-28T03:59:15.562Z,0.62
2023-02-28T04:00:05.616Z,0.62
2023-02-28T04:00:55.656Z,0.60
2023-02-28T04:01:45.721Z,0.61
2023-02-28T04:02:35.743Z,0.61
2023-02-28T04:03:25.802Z,0.61
2023-02-28T04:04:15.888Z,0.60
2023-02-28T04:05:05.963Z,0.60
2023-02-28T04:05:56.010Z,0.60
2023-02-28T04:06:46.076Z,0.61
2023-02-28T04:07:36.107Z,0.60
2023-02-28T04:08:26.166Z,0.61
2023-02-28T04:09:16.362Z,0.59
2023-02-28T04:10:06.416Z,0.61
2023-02-28T04:10:56.460Z,0.59
2023-02-28T04:11:46.521Z,0.61
2023-02-28T04:12:36.565Z,0.61
2023-02-28T04:13:26.595Z,0.60
2023-02-28T04:14:16.675Z,0.59
2023-02-28T04:15:06.729Z,0.62
2023-02-28T04:15:56.879Z,0.60
2023-02-28T04:16:46.985Z,0.62
2023-02-28T04:17:36.866Z,0.61
2023-02-28T04:18:26.944Z,0.61
2023-02-28T04:19:17.017Z,0.62
2023-02-28T04:20:07.064Z,0.61
2023-02-28T04:20:57.114Z,0.61
2023-02-28T04:21:47.128Z,0.61
2023-02-28T04:22:37.176Z,0.63
2023-02-28T04:23:27.211Z,0.60
2023-02-28T04:24:17.286Z,0.61
2023-02-28T04:25:07.325Z,0.61
2023-02-28T04:25:57.347Z,0.61
2023-02-28T04:26:47.389Z,0.62
2023-02-28T04:27:37.451Z,0.61
2023-02-28T04:28:27.488Z,0.62
2023-02-28T04:29:17.564Z,0.64
2023-02-28T04:30:07.623Z,0.64
2023-02-28T04:30:57.648Z,0.62
2023-02-28T04:31:47.859Z,0.63
2023-02-28T04:32:37.823Z,0.62
2023-02-28T04:33:27.794Z,0.62
2023-02-28T04:34:17.851Z,0.62
2023-02-28T04:35:07.899Z,0.63
2023-02-28T04:35:58.204Z,0.64
2023-02-28T04:36:51.062Z,0.62
2023-02-28T04:37:38.238Z,0.62
2023-02-28T04:38:28.306Z,0.60
2023-02-28T04:39:18.378Z,0.61
2023-02-28T04:40:08.514Z,0.61
2023-02-28T04:40:58.536Z,0.60
2023-02-28T04:41:48.602Z,0.61
2023-02-28T04:42:38.956Z,0.59
2023-02-28T04:43:28.971Z,0.58
2023-02-28T04:44:19.064Z,0.60
2023-02-28T04:45:09.130Z,0.59
2023-02-28T04:45:59.195Z,0.59
2023-02-28T04:46:49.198Z,0.60
2023-02-28T04:47:39.290Z,0.59
2023-02-28T04:48:29.307Z,0.58
2023-02-28T04:49:19.396Z,0.58
2023-02-28T04:50:09.448Z,0.59
2023-02-28T04:50:59.510Z,0.59
2023-02-28T04:51:49.541Z,0.59
2023-02-28T04:52:39.602Z,0.59
2023-02-28T04:53:29.623Z,0.59
2023-02-28T04:54:19.666Z,0.59
2023-02-28T04:55:09.717Z,0.60
2023-02-28T04:55:59.792Z,0.60
2023-02-28T04:56:49.807Z,0.62
2023-02-28T04:57:39.844Z,0.62
2023-02-28T04:58:29.879Z,0.62
2023-02-28T04:59:19.957Z,0.62
2023-02-28T05:00:10.009Z,0.62
2023-02-28T05:01:00.045Z,0.62
2023-02-28T05:01:50.082Z,0.62
2023-02-28T05:02:40.159Z,0.62
2023-02-28T05:03:30.183Z,0.61
2023-02-28T05:04:20.292Z,0.62
2023-02-28T05:05:10.335Z,0.61
2023-02-28T05:06:00.358Z,0.63
2023-02-28T05:06:50.388Z,0.62
2023-02-28T05:07:40.500Z,0.64
2023-02-28T05:08:30.499Z,0.64
2023-02-28T05:09:20.584Z,0.65
2023-02-28T05:10:10.662Z,0.67
2023-02-28T05:11:00.691Z,0.67
2023-02-28T05:11:51.030Z,0.68
2023-02-28T05:12:41.072Z,0.68
2023-02-28T05:13:31.100Z,0.70
2023-02-28T05:14:21.177Z,0.69
2023-02-28T05:15:11.233Z,0.70
2023-02-28T05:16:01.320Z,0.72
2023-02-28T05:16:51.337Z,0.70
2023-02-28T05:17:41.388Z,0.69
2023-02-28T05:18:31.454Z,0.70
2023-02-28T05:19:21.462Z,0.70
2023-02-28T05:20:15.656Z,0.70
2023-02-28T05:21:01.664Z,0.70
2023-02-28T05:21:51.692Z,0.70
2023-02-28T05:22:41.784Z,0.71
2023-02-28T05:23:32.087Z,0.72
2023-02-28T05:24:22.164Z,0.75
2023-02-28T05:25:12.273Z,0.77
2023-02-28T05:26:02.548Z,0.78
2023-02-28T05:26:52.579Z,0.77
2023-02-28T05:27:42.663Z,0.77
2023-02-28T05:28:32.685Z,0.83
2023-02-28T05:29:22.777Z,0.94
2023-02-28T05:30:12.814Z,1.13
2023-02-28T05:31:02.856Z,1.25
2023-02-28T05:31:53.102Z,1.39
2023-02-28T05:32:42.955Z,1.45
2023-02-28T05:33:32.993Z,1.50
2023-02-28T05:34:23.040Z,1.50
2023-02-28T05:35:13.107Z,1.56
2023-02-28T05:36:03.219Z,1.58
2023-02-28T05:36:53.198Z,1.50
2023-02-28T05:37:43.226Z,1.51
2023-02-28T05:38:33.304Z,1.47
2023-02-28T05:39:23.354Z,1.46
2023-02-28T05:40:13.408Z,1.45
2023-02-28T05:41:03.442Z,1.43
2023-02-28T05:41:53.477Z,1.41
2023-02-28T05:42:43.552Z,1.34
2023-02-28T05:43:33.624Z,1.34
2023-02-28T05:44:23.658Z,1.34
2023-02-28T05:45:15.743Z,1.33
2023-02-28T05:46:03.754Z,1.33
2023-02-28T05:46:53.849Z,1.24
2023-02-28T05:47:43.867Z,1.23
2023-02-28T05:48:33.917Z,1.23
2023-02-28T05:49:23.976Z,1.24
2023-02-28T05:50:14.249Z,1.20
2023-02-28T05:51:04.289Z,1.19
2023-02-28T05:51:54.319Z,1.19
2023-02-28T05:52:44.368Z,1.16
2023-02-28T05:53:34.405Z,1.15
2023-02-28T05:54:24.503Z,1.13
2023-02-28T05:55:14.531Z,1.12
2023-02-28T05:56:04.595Z,1.12
2023-02-28T05:56:54.598Z,1.12
2023-02-28T05:57:44.673Z,1.13
2023-02-28T05:58:34.711Z,1.10
2023-02-28T05:59:25.056Z,1.11
2023-02-28T06:00:15.090Z,1.13
2023-02-28T06:01:05.145Z,1.17
2023-02-28T06:01:55.219Z,1.15
2023-02-28T06:02:45.207Z,1.14
2023-02-28T06:03:35.295Z,1.17
2023-02-28T06:04:31.968Z,1.14
2023-02-28T06:05:16.368Z,1.14
2023-02-28T06:06:05.419Z,1.14
2023-02-28T06:06:55.450Z,1.14
2023-02-28T06:07:45.520Z,1.16
2023-02-28T06:08:35.543Z,1.17
2023-02-28T06:09:25.628Z,1.19
2023-02-28T06:10:15.690Z,1.17
2023-02-28T06:11:05.895Z,1.18
2023-02-28T06:11:55.934Z,1.20
2023-02-28T06:12:46.007Z,1.19
2023-02-28T06:13:36.041Z,1.16
2023-02-28T06:14:26.094Z,1.20
2023-02-28T06:15:16.142Z,1.25
2023-02-28T06:16:06.183Z,1.25
2023-02-28T06:16:58.579Z,1.28
2023-02-28T06:17:46.302Z,1.32
2023-02-28T06:18:36.369Z,1.27
2023-02-28T06:19:26.373Z,1.28
2023-02-28T06:20:16.437Z,1.28
2023-02-28T06:21:06.492Z,1.27
2023-02-28T06:21:56.515Z,1.27
2023-02-28T06:22:46.550Z,1.27
2023-02-28T06:23:36.672Z,1.25
2023-02-28T06:24:26.709Z,1.24
2023-02-28T06:25:16.753Z,1.22
2023-02-28T06:26:06.819Z,1.19
2023-02-28T06:26:56.833Z,1.19
2023-02-28T06:27:46.880Z,1.20
2023-02-28T06:28:36.910Z,1.20
2023-02-28T06:29:26.958Z,1.14
2023-02-28T06:30:17.036Z,1.16
2023-02-28T06:31:07.142Z,1.16
2023-02-28T06:31:57.153Z,1.16
2023-02-28T06:32:47.148Z,1.14
2023-02-28T06:33:37.185Z,1.13
2023-02-28T06:34:27.226Z,1.12
2023-02-28T06:35:17.281Z,1.10
2023-02-28T06:36:07.357Z,1.11
2023-02-28T06:36:57.414Z,1.08
2023-02-28T06:37:47.503Z,1.07
2023-02-28T06:38:37.555Z,1.05
2023-02-28T06:39:27.592Z,1.07
2023-02-28T06:40:17.634Z,1.08
2023-02-28T06:41:07.683Z,1.06
2023-02-28T06:41:58.051Z,1.08
2023-02-28T06:42:47.803Z,1.05
2023-02-28T06:43:37.966Z,1.03
2023-02-28T06:44:28.050Z,1.05
2023-02-28T06:45:18.113Z,1.06
2023-02-28T06:46:08.173Z,1.02
2023-02-28T06:46:58.202Z,1.07
2023-02-28T06:47:48.248Z,1.08
2023-02-28T06:48:38.290Z,1.09
2023-02-28T06:49:28.317Z,1.08
2023-02-28T06:50:18.412Z,1.08
2023-02-28T06:51:08.463Z,1.07
2023-02-28T06:51:58.503Z,1.07
2023-02-28T06:52:48.543Z,1.07
2023-02-28T06:53:38.585Z,1.09
2023-02-28T06:54:28.635Z,1.11
2023-02-28T06:55:18.693Z,1.10
2023-02-28T06:56:08.725Z,1.11
2023-02-28T06:56:58.805Z,1.11
2023-02-28T06:57:48.866Z,1.11
2023-02-28T06:58:38.882Z,1.13
2023-02-28T06:59:28.979Z,1.12
2023-02-28T07:00:19.044Z,1.10
2023-02-28T07:01:09.088Z,1.08
2023-02-28T07:01:59.175Z,1.12
2023-02-28T07:02:49.163Z,1.09
2023-02-28T07:03:39.238Z,1.06
2023-02-28T07:04:29.304Z,1.06
2023-02-28T07:05:19.324Z,1.09
2023-02-28T07:06:09.365Z,1.08
2023-02-28T07:06:59.397Z,1.10
2023-02-28T07:07:49.439Z,1.10
2023-02-28T07:08:39.470Z,1.08
2023-02-28T07:09:29.517Z,1.11
2023-02-28T07:10:20.422Z,1.12
2023-02-28T07:11:09.656Z,1.16
2023-02-28T07:11:59.705Z,1.13
2023-02-28T07:12:49.745Z,1.13
2023-02-28T07:13:39.815Z,1.12
2023-02-28T07:14:29.827Z,1.13
2023-02-28T07:15:19.880Z,1.15
2023-02-28T07:16:10.009Z,1.14
2023-02-28T07:17:00.011Z,1.14
2023-02-28T07:17:50.049Z,1.15
2023-02-28T07:18:40.083Z,1.12
2023-02-28T07:19:30.135Z,1.17
2023-02-28T07:20:20.173Z,1.18
2023-02-28T07:21:10.213Z,1.23
2023-02-28T07:22:00.245Z,1.28
2023-02-28T07:22:50.302Z,1.30
2023-02-28T07:23:40.363Z,1.31
2023-02-28T07:24:30.425Z,1.32
2023-02-28T07:25:20.447Z,1.34
2023-02-28T07:26:10.485Z,1.35
2023-02-28T07:27:00.553Z,1.34
2023-02-28T07:27:50.608Z,1.40
2023-02-28T07:28:40.646Z,1.39
2023-02-28T07:29:30.721Z,1.39
2023-02-28T07:30:20.734Z,1.39
2023-02-28T07:31:10.872Z,1.39
2023-02-28T07:32:00.890Z,1.40
2023-02-28T07:32:50.866Z,1.41
2023-02-28T07:33:40.931Z,1.39
2023-02-28T07:34:30.986Z,1.39
2023-02-28T07:35:21.035Z,1.40
2023-02-28T07:36:11.080Z,1.39
2023-02-28T07:37:01.109Z,1.42
2023-02-28T07:37:51.192Z,1.45
2023-02-28T07:38:41.225Z,1.43
2023-02-28T07:39:31.262Z,1.45
2023-02-28T07:40:21.316Z,1.42
2023-02-28T07:41:11.356Z,1.42
2023-02-28T07:42:01.381Z,1.38
2023-02-28T07:42:51.466Z,1.39
2023-02-28T07:43:41.497Z,1.43
2023-02-28T07:44:31.576Z,1.42
2023-02-28T07:45:21.659Z,1.41
2023-02-28T07:46:11.703Z,1.42
2023-02-28T07:47:01.815Z,1.40
2023-02-28T07:47:51.780Z,1.40
2023-02-28T07:48:41.814Z,1.40
2023-02-28T07:49:31.896Z,1.44
2023-02-28T07:50:21.954Z,1.43
2023-02-28T07:51:11.999Z,1.41
2023-02-28T07:52:02.036Z,1.40
2023-02-28T07:52:52.111Z,1.37
2023-02-28T07:53:42.155Z,1.39
2023-02-28T07:54:32.197Z,1.44
2023-02-28T07:55:22.246Z,1.44
2023-02-28T07:56:12.298Z,1.46
2023-02-28T07:57:02.385Z,1.42
2023-02-28T07:57:52.457Z,1.38
2023-02-28T07:58:42.495Z,1.41
2023-02-28T07:59:32.539Z,1.46
2023-02-28T08:00:22.730Z,1.43
2023-02-28T08:01:12.721Z,1.43
2023-02-28T08:02:02.789Z,1.42
2023-02-28T08:02:52.771Z,1.41
2023-02-28T08:03:42.852Z,1.42
2023-02-28T08:04:32.966Z,1.40
2023-02-28T08:05:23.109Z,1.39
2023-02-28T08:06:13.034Z,1.41
2023-02-28T08:07:03.073Z,1.38
2023-02-28T08:07:53.116Z,1.41
2023-02-28T08:08:43.148Z,1.42
2023-02-28T08:09:33.218Z,1.40
2023-02-28T08:10:23.339Z,1.42
2023-02-28T08:11:13.353Z,1.42
2023-02-28T08:12:03.417Z,1.43
2023-02-28T08:12:53.490Z,1.44
2023-02-28T08:13:43.565Z,1.42
2023-02-28T08:14:33.634Z,1.45
2023-02-28T08:15:23.680Z,1.45
2023-02-28T08:16:13.951Z,1.47
2023-02-28T08:17:03.978Z,1.42
2023-02-28T08:17:54.036Z,1.41
2023-02-28T08:18:44.063Z,1.38
2023-02-28T08:19:34.099Z,1.37
2023-02-28T08:20:24.148Z,1.35
2023-02-28T08:21:14.192Z,1.37
2023-02-28T08:22:04.230Z,1.34
2023-02-28T08:22:54.302Z,1.31
2023-02-28T08:23:44.340Z,1.30
2023-02-28T08:24:34.385Z,1.30
2023-02-28T08:25:24.429Z,1.29
2023-02-28T08:26:14.471Z,1.27
2023-02-28T08:27:04.502Z,1.31
2023-02-28T08:27:54.586Z,1.30
2023-02-28T08:28:44.617Z,1.28
2023-02-28T08:29:34.662Z,1.28
2023-02-28T08:30:24.710Z,1.28
2023-02-28T08:31:14.803Z,1.29
2023-02-28T08:32:04.952Z,1.28
2023-02-28T08:32:54.972Z,1.29
2023-02-28T08:33:44.920Z,1.29
2023-02-28T08:34:34.966Z,1.30
2023-02-28T08:35:25.029Z,1.31
2023-02-28T08:36:15.266Z,1.28
2023-02-28T08:37:05.270Z,1.27
2023-02-28T08:37:55.295Z,1.26
2023-02-28T08:38:45.341Z,1.21
2023-02-28T08:39:35.395Z,1.25
2023-02-28T08:40:25.527Z,1.23
2023-02-28T08:41:15.486Z,1.25
2023-02-28T08:42:07.863Z,1.21
2023-02-28T08:42:55.568Z,1.21
2023-02-28T08:43:45.605Z,1.23
2023-02-28T08:44:35.655Z,1.23
2023-02-28T08:45:25.842Z,1.24
2023-02-28T08:46:15.869Z,1.21
2023-02-28T08:47:05.802Z,1.19
2023-02-28T08:47:55.877Z,1.19
2023-02-28T08:48:45.946Z,1.20
2023-02-28T08:49:35.966Z,1.18
2023-02-28T08:50:26.042Z,1.18
2023-02-28T08:51:16.084Z,1.17
2023-02-28T08:52:06.116Z,1.17
2023-02-28T08:52:56.202Z,1.14
2023-02-28T08:53:46.252Z,1.13
2023-02-28T08:54:36.329Z,1.15
2023-02-28T08:55:26.389Z,1.15
2023-02-28T08:56:16.425Z,1.14
2023-02-28T08:57:06.465Z,1.15
2023-02-28T08:57:56.540Z,1.10
2023-02-28T08:58:46.579Z,1.09
2023-02-28T08:59:36.641Z,1.11
2023-02-28T09:00:26.692Z,1.16
2023-02-28T09:01:16.795Z,1.19
2023-02-28T09:02:06.831Z,1.20
2023-02-28T09:02:56.906Z,1.17
2023-02-28T09:03:46.965Z,1.16
2023-02-28T09:04:37.018Z,1.15
2023-02-28T09:05:27.039Z,1.13
2023-02-28T09:06:17.078Z,1.13
2023-02-28T09:07:07.102Z,1.10
2023-02-28T09:07:57.188Z,1.11
2023-02-28T09:08:47.216Z,1.09
2023-02-28T09:09:37.265Z,1.09
2023-02-28T09:10:27.312Z,1.11
2023-02-28T09:11:17.356Z,1.11
2023-02-28T09:12:07.383Z,1.11
2023-02-28T09:12:57.428Z,1.12
2023-02-28T09:13:47.458Z,1.08
2023-02-28T09:14:37.528Z,1.04
2023-02-28T09:15:27.584Z,1.07
2023-02-28T09:16:17.722Z,1.06
2023-02-28T09:17:07.688Z,1.08
2023-02-28T09:17:57.753Z,1.08
2023-02-28T09:18:47.785Z,1.08
2023-02-28T09:19:37.834Z,1.09
2023-02-28T09:20:27.893Z,1.11
2023-02-28T09:21:17.929Z,1.08
2023-02-28T09:22:08.007Z,1.08
2023-02-28T09:22:58.085Z,1.06
2023-02-28T09:23:48.186Z,1.02
2023-02-28T09:24:38.495Z,1.03
2023-02-28T09:25:28.533Z,1.04
2023-02-28T09:26:18.575Z,1.02
2023-02-28T09:27:08.941Z,1.05
2023-02-28T09:27:58.697Z,1.05
2023-02-28T09:28:48.729Z,1.05
2023-02-28T09:29:38.799Z,1.05
2023-02-28T09:30:28.942Z,1.06
2023-02-28T09:31:18.947Z,1.05
2023-02-28T09:32:08.986Z,1.04
2023-02-28T09:32:58.988Z,1.03
2023-02-28T09:33:49.017Z,1.02
2023-02-28T09:34:39.173Z,1.02
2023-02-28T09:35:29.184Z,1.05
2023-02-28T09:36:19.423Z,1.06
2023-02-28T09:37:09.249Z,1.04
2023-02-28T09:37:59.337Z,1.03
2023-02-28T09:38:49.828Z,0.99
2023-02-28T09:39:39.438Z,1.02
2023-02-28T09:40:29.491Z,1.01
2023-02-28T09:41:19.526Z,0.97
2023-02-28T09:42:09.567Z,0.95
2023-02-28T09:42:59.629Z,0.98
2023-02-28T09:43:49.669Z,0.95
2023-02-28T09:44:39.791Z,0.99
2023-02-28T09:45:29.804Z,1.02
2023-02-28T09:46:19.864Z,1.01
2023-02-28T09:47:09.878Z,1.02
2023-02-28T09:47:59.923Z,0.98
2023-02-28T09:48:49.981Z,0.98
2023-02-28T09:49:40.062Z,0.95
2023-02-28T09:50:30.137Z,0.97
2023-02-28T09:51:20.178Z,0.99
2023-02-28T09:52:10.298Z,0.99
2023-02-28T09:53:00.336Z,1.00
2023-02-28T09:53:53.394Z,1.02
2023-02-28T09:54:41.461Z,0.99
2023-02-28T09:55:32.744Z,0.98
2023-02-28T09:56:20.716Z,0.96
2023-02-28T09:57:10.729Z,0.98
2023-02-28T09:58:00.828Z,0.96
2023-02-28T09:58:50.896Z,0.95
2023-02-28T09:59:40.925Z,0.98
2023-02-28T10:00:30.993Z,0.96
2023-02-28T10:01:21.105Z,0.97
2023-02-28T10:02:11.063Z,0.94
2023-02-28T10:03:01.105Z,0.95
2023-02-28T10:03:51.150Z,0.97
2023-02-28T10:04:41.210Z,0.96
2023-02-28T10:05:31.241Z,0.97
2023-02-28T10:06:21.305Z,0.97
2023-02-28T10:07:11.321Z,0.95
2023-02-28T10:08:01.416Z,0.96
2023-02-28T10:08:51.431Z,0.95
2023-02-28T10:09:41.508Z,0.92
2023-02-28T10:10:31.557Z,0.93
2023-02-28T10:11:21.620Z,0.93
2023-02-28T10:12:11.640Z,0.94
2023-02-28T10:13:01.674Z,0.94
2023-02-28T10:13:51.699Z,0.92
2023-02-28T10:14:41.744Z,0.91
2023-02-28T10:15:31.888Z,0.90
2023-02-28T10:16:21.866Z,0.94
2023-02-28T10:17:11.896Z,0.96
2023-02-28T10:18:08.771Z,0.98
2023-02-28T10:18:53.038Z,0.98
2023-02-28T10:19:42.084Z,0.96
2023-02-28T10:20:32.122Z,0.92
2023-02-28T10:21:22.175Z,0.92
2023-02-28T10:22:12.217Z,0.90
2023-02-28T10:23:02.285Z,0.90
2023-02-28T10:23:52.368Z,0.93
2023-02-28T10:24:42.572Z,0.92
2023-02-28T10:25:32.625Z,0.90
2023-02-28T10:26:22.659Z,0.90
2023-02-28T10:27:12.691Z,0.88
2023-02-28T10:28:02.736Z,0.87
2023-02-28T10:28:52.773Z,0.86
2023-02-28T10:29:42.804Z,0.86
2023-02-28T10:30:32.854Z,0.90
2023-02-28T10:31:24.769Z,0.90
2023-02-28T10:32:13.078Z,0.91
2023-02-28T10:33:03.088Z,0.90
2023-02-28T10:33:53.081Z,0.89
2023-02-28T10:34:43.163Z,0.89
2023-02-28T10:35:33.208Z,0.91
2023-02-28T10:36:23.275Z,0.87
2023-02-28T10:37:13.273Z,0.86
2023-02-28T10:38:03.348Z,0.88
2023-02-28T10:38:53.381Z,0.91
2023-02-28T10:39:43.510Z,0.86
2023-02-28T10:40:33.770Z,0.92
2023-02-28T10:41:23.790Z,0.94
2023-02-28T10:42:13.816Z,0.91
2023-02-28T10:43:03.898Z,0.90
2023-02-28T10:43:53.939Z,0.88
2023-02-28T10:44:44.017Z,0.86
2023-02-28T10:45:34.097Z,0.89
2023-02-28T10:46:24.182Z,0.88
2023-02-28T10:47:14.165Z,0.87
2023-02-28T10:48:04.249Z,0.83
2023-02-28T10:48:54.285Z,0.83
2023-02-28T10:49:44.582Z,0.87
2023-02-28T10:50:34.650Z,0.85
2023-02-28T10:51:24.687Z,0.85
2023-02-28T10:52:14.717Z,0.82
2023-02-28T10:53:06.050Z,0.83
2023-02-28T10:54:01.548Z,0.83
2023-02-28T10:54:45.949Z,0.83
2023-02-28T10:55:34.970Z,0.83
2023-02-28T10:56:25.027Z,0.84
2023-02-28T10:57:15.060Z,0.84
2023-02-28T10:58:05.131Z,0.85
2023-02-28T10:58:55.190Z,0.87
2023-02-28T10:59:45.271Z,0.91
2023-02-28T11:00:35.384Z,0.89
2023-02-28T11:01:25.495Z,0.92
2023-02-28T11:02:15.481Z,0.91
2023-02-28T11:03:05.825Z,0.93
2023-02-28T11:03:55.836Z,0.93
2023-02-28T11:04:46.829Z,0.93
2023-02-28T11:05:35.960Z,0.93
2023-02-28T11:06:25.992Z,0.90